Flight Track Log - Related Links

Times and Time Zones

All times are in EDT time to prevent confusion due to time zone crossing. See the UAL6057 flight status page for this flight to view local times or setup timezone preferences in your user account.

Time Position Orientation Groundspeed Altitude Reporting Facility
EDT Latitude Longitude Course Direction KTS MPH feet Rate Location/Type
Mon 10:21:17 PM 41.9333 -87.9167 166° South 175 201 2,200  Level Chicago TRACON
Mon 10:22:17 PM 41.8833 -87.9000 166° South 180 207 4,800 2,174 Climbing Chicago TRACON
Mon 10:23:35 PM 41.8117 -87.8914 175° South 231 266 7,200 2,186 Climbing Chicago Center
Mon 10:24:37 PM 41.7342 -87.8881 178° South 274 315 9,900 2,390 Climbing Chicago Center
Mon 10:25:38 PM 41.6514 -87.8856 179° South 293 337 12,100 2,213 Climbing Chicago Center
Mon 10:26:39 PM 41.5636 -87.8831 179° South 311 358 14,400 2,164 Climbing Chicago Center
Mon 10:27:40 PM 41.4722 -87.8792 178° South 323 372 16,500 1,967 Climbing Chicago Center
Mon 10:28:41 PM 41.3778 -87.9000 189° South 336 387 18,400 1,672 Climbing Chicago Center
Mon 10:29:42 PM 41.2797 -87.9242 190° South 349 402 19,900 1,475 Climbing Chicago Center
Mon 10:30:43 PM 41.1781 -87.9478 190° South 365 420 21,400 1,317 Climbing Chicago Center
Mon 10:31:45 PM 41.0708 -87.9447 179° South 398 458 22,600 1,220 Climbing Chicago Center
Mon 10:32:46 PM 40.9614 -87.9236 172° South 400 460 23,900 1,230 Climbing Chicago Center
Mon 10:33:47 PM 40.8500 -87.9011 171° South 406 467 25,100 1,230 Climbing Chicago Center
Mon 10:34:48 PM 40.7392 -87.8794 172° South 406 467 26,400 934 Climbing Chicago Center
Mon 10:35:49 PM 40.6039 -87.8525 171° South 410 472 27,000 293 Climbing Chicago Center
Mon 10:36:51 PM 40.4847 -87.8297 172° South 433 498 27,000  Level Chicago Center
Mon 10:37:53 PM 40.3564 -87.8086 173° South 445 512 27,000  Level Indianapolis Center
Mon 10:38:54 PM 40.2311 -87.7822 171° South 451 519 27,000  Level Indianapolis Center
Mon 10:39:55 PM 40.1031 -87.7597 172° South 458 527 27,000  Level Indianapolis Center
Mon 10:40:57 PM 39.9781 -87.7344 171° South 456 525 27,000  Level Indianapolis Center
Mon 10:41:58 PM 39.8517 -87.7108 172° South 456 525 27,000  Level Indianapolis Center
Mon 10:42:59 PM 39.7247 -87.6872 172° South 459 528 27,000  Level Indianapolis Center
Mon 10:44:00 PM 39.5992 -87.6642 172° South 455 524 27,000  Level Indianapolis Center
Mon 10:45:01 PM 39.4522 -87.6361 172° South 455 524 27,000  Level Indianapolis Center
Mon 10:46:02 PM 39.3272 -87.6125 172° South 455 524 27,000  Level Indianapolis Center
Mon 10:47:03 PM 39.2025 -87.5892 172° South 452 520 27,000  Level Indianapolis Center
Mon 10:48:04 PM 39.0803 -87.5669 172° South 455 524 27,000  Level Indianapolis Center
Mon 10:49:06 PM 38.9556 -87.5433 172° South 452 520 27,000  Level Indianapolis Center
Mon 10:50:07 PM 38.8297 -87.5203 172° South 455 524 27,000  Level Indianapolis Center
Mon 10:51:08 PM 38.7047 -87.4981 172° South 454 522 27,000  Level Indianapolis Center
Mon 10:52:09 PM 38.5794 -87.4747 172° South 454 522 27,000  Level Indianapolis Center
Mon 10:53:10 PM 38.4544 -87.4522 172° South 455 524 27,000  Level Indianapolis Center
Mon 10:54:11 PM 38.3042 -87.4256 172° South 457 526 27,000  Level Indianapolis Center
Mon 10:55:13 PM 38.1792 -87.4028 172° South 458 527 27,000  Level Indianapolis Center
Mon 10:56:14 PM 38.0531 -87.3797 172° South 459 528 27,000  Level Indianapolis Center
Mon 10:57:15 PM 37.9269 -87.3569 172° South 460 529 27,000  Level Indianapolis Center
Mon 10:58:16 PM 37.7997 -87.3339 172° South 461 531 27,000 -49 Level Indianapolis Center
Mon 10:59:17 PM 37.6783 -87.3117 172° South 464 534 26,900 -850 Descending Indianapolis Center
Mon 11:00:09 PM 37.5481 -87.2914 173° South 464 534 25,400 -1,714 Descending Memphis Center
Mon 11:01:09 PM 37.4225 -87.2675 171° South 464 534 23,700 -1,200 Descending Memphis Center
Mon 11:02:09 PM 37.3011 -87.2383 169° South 458 527 23,000 -350 Descending Memphis Center
Mon 11:03:09 PM 37.1772 -87.2042 168° South 452 520 23,000  Level Memphis Center
Mon 11:04:09 PM 37.0722 -87.1747 167° South 447 514 23,000 -304 Level Memphis Center
Mon 11:04:28 PM 37.0283 -87.1633 168° South 439 505 22,600 -1,500 Descending Memphis Center
Mon 11:05:09 PM 36.9506 -87.1381 165° South 447 514 21,500 -2,000 Descending Memphis Center
Mon 11:05:40 PM 36.8814 -87.1200 168° South 446 513 20,200 -2,100 Descending Memphis Center
Mon 11:06:09 PM 36.8328 -87.1039 165° South 441 507 19,400 -2,157 Descending Memphis Center
Mon 11:07:09 PM 36.7292 -87.0458 156° South 421 484 17,000 -2,400 Descending Memphis Center
Mon 11:08:09 PM 36.6253 -86.9803 153° Southeast 414 476 14,600 -2,200 Descending Memphis Center
Mon 11:09:09 PM 36.5278 -86.9225 155° Southeast 402 463 12,600 -1,950 Descending Memphis Center
Mon 11:10:09 PM 36.4261 -86.8597 154° Southeast 382 440 10,700 -1,600 Descending Memphis Center
Mon 11:11:09 PM 36.3475 -86.8117 154° Southeast 343 395 9,400 -1,450 Descending Memphis Center
Mon 11:12:09 PM 36.2733 -86.7683 155° Southeast 302 348 7,800 -1,450 Descending Memphis Center
Mon 11:13:09 PM 36.2044 -86.7586 174° South 288 331 6,500 -1,350 Descending Memphis Center
Mon 11:14:09 PM 36.1342 -86.7875 198° South 268 308 5,100 -1,000 Descending Memphis Center
Mon 11:15:09 PM 36.0725 -86.8106 197° South 254 292 4,500 -850 Descending Memphis Center
Mon 11:16:09 PM 36.0125 -86.8286 194° South 234 269 3,400 -750 Descending Memphis Center
Mon 11:17:09 PM 35.9919 -86.7653 112° Southeast 157 181 3,000 -450 Descending Memphis Center
Mon 11:18:09 PM 36.0364 -86.7172 41° Northeast 105 121 2,500 -800 Descending Memphis Center
Mon 11:19:09 PM 36.0817 -86.6997 17° North 140 161 1,400 -950 Descending Memphis Center
Mon 11:20:09 PM 36.1189 -86.6853 17° North 145 167 600 -450 Descending Memphis Center
Mon 11:21:09 PM 36.1517 -86.6658 26° Northeast 145 167 500 4,200 Descending Memphis Center
Mon 11:22:09 PM 36.1886 -86.6514 18° North 145 167 9,000 8,500 Climbing Memphis Center
Mon 11:24:00 PM 36.1167 -86.6667 191° South  Level FlightAware Approximate
Mon 11:31:00 PM 36.1245 -86.6782 191° South  Level Estimated
Mon 11:32:00 PM 36.1245 -86.6782 191° South  Level Estimated
Mon 11:33:00 PM 36.1245 -86.6782 191° South  Level Estimated
Mon 11:34:00 PM 36.1245 -86.6782 191° South  Level Estimated
Mon 11:35:00 PM 36.1245 -86.6782 191° South  Level Estimated

Login

Don't have an account? Register now (free) for customized features, flight alerts, and more!